createdAt,value
2019-02-11T00:01:33.203Z,19.87
2019-02-11T00:04:02.534Z,18.70
2019-02-11T00:06:31.813Z,19.80
2019-02-11T00:09:01.683Z,29.17
2019-02-11T00:11:31.009Z,20.20
2019-02-11T00:14:00.329Z,21.07
2019-02-11T00:16:29.683Z,21.50
2019-02-11T00:18:59.019Z,17.60
2019-02-11T00:21:28.350Z,22.07
2019-02-11T00:23:57.702Z,21.60
2019-02-11T00:26:27.037Z,14.50
2019-02-11T00:28:56.357Z,22.63
2019-02-11T00:31:25.735Z,17.73
2019-02-11T00:33:55.128Z,16.13
2019-02-11T00:36:24.458Z,17.47
2019-02-11T00:38:53.870Z,22.53
2019-02-11T00:41:23.220Z,15.30
2019-02-11T00:43:52.545Z,11.83
2019-02-11T00:46:21.897Z,14.97
2019-02-11T00:48:51.221Z,19.70
2019-02-11T00:51:20.557Z,12.77
2019-02-11T00:53:49.914Z,21.07
2019-02-11T00:56:19.244Z,19.27
2019-02-11T00:58:48.564Z,16.17
2019-02-11T01:01:17.919Z,16.57
2019-02-11T01:03:47.243Z,14.50
2019-02-11T01:06:16.570Z,13.07
2019-02-11T01:08:45.922Z,8.83
2019-02-11T01:11:15.249Z,9.97
2019-02-11T01:13:44.562Z,13.10
2019-02-11T01:16:13.924Z,10.10
2019-02-11T01:18:43.250Z,10.20
2019-02-11T01:21:12.572Z,12.43
2019-02-11T01:23:41.922Z,7.80
2019-02-11T01:26:11.250Z,12.17
2019-02-11T01:28:40.577Z,11.47
2019-02-11T01:31:09.926Z,8.83
2019-02-11T01:33:39.247Z,9.30
2019-02-11T01:36:08.569Z,6.47
2019-02-11T01:38:37.918Z,9.83
2019-02-11T01:41:07.251Z,12.93
2019-02-11T01:43:36.580Z,7.70
2019-02-11T01:46:05.925Z,6.30
2019-02-11T01:48:35.250Z,5.03
2019-02-11T01:51:04.647Z,9.43
2019-02-11T01:53:34.006Z,6.90
2019-02-11T01:56:03.323Z,6.50
2019-02-11T01:58:32.645Z,8.80
2019-02-11T02:01:02.007Z,22.27
2019-02-11T02:03:31.329Z,12.77
2019-02-11T02:06:00.664Z,14.73
2019-02-11T02:08:30.007Z,5.97
2019-02-11T02:10:59.329Z,8.20
2019-02-11T02:13:28.653Z,12.87
2019-02-11T02:15:58.010Z,7.10
2019-02-11T02:18:27.326Z,7.83
2019-02-11T02:20:56.645Z,8.67
2019-02-11T02:23:26.003Z,9.47
2019-02-11T02:25:55.333Z,10.87
2019-02-11T02:28:24.661Z,7.30
2019-02-11T02:30:54.022Z,9.30
2019-02-11T02:33:23.351Z,6.63
2019-02-11T02:35:52.682Z,5.47
2019-02-11T02:38:22.047Z,4.73
2019-02-11T02:40:51.362Z,8.87
2019-02-11T02:43:20.685Z,10.77
2019-02-11T02:45:50.053Z,9.77
2019-02-11T02:48:19.375Z,9.63
2019-02-11T02:50:48.697Z,10.50
2019-02-11T02:53:18.057Z,10.53
2019-02-11T02:55:47.381Z,8.37
2019-02-11T02:58:16.713Z,10.30
2019-02-11T03:00:46.070Z,7.17
2019-02-11T03:03:15.399Z,12.63
2019-02-11T03:05:44.721Z,10.33
2019-02-11T03:08:14.073Z,14.90
2019-02-11T03:10:43.396Z,11.23
2019-02-11T03:13:12.726Z,10.77
2019-02-11T03:15:42.081Z,6.70
2019-02-11T03:18:11.414Z,18.37
2019-02-11T03:20:40.741Z,11.10
2019-02-11T03:23:10.109Z,12.97
2019-02-11T03:25:39.420Z,7.73
2019-02-11T03:28:08.741Z,10.77
2019-02-11T03:30:38.094Z,10.80
2019-02-11T03:33:07.414Z,9.40
2019-02-11T03:35:36.733Z,9.20
2019-02-11T03:38:06.085Z,8.27
2019-02-11T03:40:35.911Z,11.23
2019-02-11T03:43:05.287Z,13.70
2019-02-11T03:45:34.633Z,9.50
2019-02-11T03:48:03.960Z,9.40
2019-02-11T03:50:33.290Z,11.90
2019-02-11T03:53:02.817Z,13.00
2019-02-11T03:55:32.149Z,8.43
2019-02-11T03:58:01.471Z,10.37
2019-02-11T04:00:30.833Z,7.90
2019-02-11T04:03:00.149Z,16.97
2019-02-11T04:05:29.555Z,12.03
2019-02-11T04:07:58.905Z,8.87
2019-02-11T04:10:28.234Z,12.20
2019-02-11T04:12:57.557Z,15.77
2019-02-11T04:15:26.974Z,9.80
2019-02-11T04:17:56.301Z,13.17
2019-02-11T04:20:25.635Z,11.47
2019-02-11T04:22:55.000Z,11.37
2019-02-11T04:25:24.317Z,13.73
2019-02-11T04:27:53.653Z,11.50
2019-02-11T04:30:23.005Z,7.90
2019-02-11T04:32:52.337Z,15.70
2019-02-11T04:35:21.659Z,6.30
2019-02-11T04:37:51.015Z,8.07
2019-02-11T04:40:20.340Z,14.20
2019-02-11T04:42:49.674Z,16.20
2019-02-11T04:45:19.024Z,11.97
2019-02-11T04:47:48.351Z,11.30
2019-02-11T04:50:17.684Z,12.33
2019-02-11T04:52:47.033Z,13.60
2019-02-11T04:55:16.361Z,18.80
2019-02-11T04:57:45.689Z,16.50
2019-02-11T05:00:15.309Z,18.57
2019-02-11T05:02:44.637Z,11.83
2019-02-11T05:05:14.321Z,12.53
2019-02-11T05:07:43.672Z,13.97
2019-02-11T05:10:15.301Z,11.43
2019-02-11T05:12:44.638Z,10.53
2019-02-11T05:15:13.981Z,16.47
2019-02-11T05:17:43.310Z,17.93
2019-02-11T05:20:13.086Z,14.73
2019-02-11T05:22:42.429Z,10.60
2019-02-11T05:25:11.750Z,8.57
2019-02-11T05:27:41.074Z,15.23
2019-02-11T05:30:11.370Z,10.23
2019-02-11T05:32:40.697Z,17.77
2019-02-11T05:35:10.025Z,15.90
2019-02-11T05:37:39.385Z,11.53
2019-02-11T05:40:11.154Z,17.33
2019-02-11T05:42:40.481Z,17.00
2019-02-11T05:45:09.983Z,16.10
2019-02-11T05:47:39.300Z,15.10
2019-02-11T05:50:10.774Z,15.93
2019-02-11T05:52:45.046Z,20.67
2019-02-11T05:55:14.373Z,11.37
2019-02-11T05:57:43.704Z,15.43
2019-02-11T06:00:14.765Z,18.30
2019-02-11T06:02:44.094Z,15.27
2019-02-11T06:05:13.430Z,13.07
2019-02-11T06:07:42.783Z,17.57
2019-02-11T06:10:12.231Z,10.53
2019-02-11T06:12:41.586Z,10.13
2019-02-11T06:15:10.985Z,21.33
2019-02-11T06:17:40.311Z,17.87
2019-02-11T06:20:10.173Z,13.77
2019-02-11T06:22:39.555Z,15.30
2019-02-11T06:25:08.887Z,18.43
2019-02-11T06:27:38.270Z,20.03
2019-02-11T06:30:12.856Z,14.47
2019-02-11T06:32:42.164Z,18.23
2019-02-11T06:35:11.559Z,14.60
2019-02-11T06:37:40.910Z,12.07
2019-02-11T06:40:10.974Z,16.90
2019-02-11T06:42:40.305Z,12.73
2019-02-11T06:45:13.192Z,18.97
2019-02-11T06:47:41.825Z,16.15
2019-02-11T06:50:14.061Z,9.67
2019-02-11T06:52:43.415Z,23.80
2019-02-11T06:55:12.809Z,16.23
2019-02-11T06:57:42.150Z,14.27
2019-02-11T07:00:15.413Z,22.80
2019-02-11T07:02:44.746Z,18.00
2019-02-11T07:05:14.074Z,27.57
2019-02-11T07:07:43.421Z,15.87
2019-02-11T07:10:12.749Z,41.70
2019-02-11T07:12:42.081Z,17.90
2019-02-11T07:15:21.240Z,18.40
2019-02-11T07:17:44.198Z,16.10
2019-02-11T07:20:13.519Z,19.47
2019-02-11T07:22:42.885Z,17.17
2019-02-11T07:25:12.286Z,19.63
2019-02-11T07:27:41.610Z,20.93
2019-02-11T07:30:14.073Z,14.73
2019-02-11T07:32:43.411Z,17.30
2019-02-11T07:35:12.727Z,21.90
2019-02-11T07:37:42.095Z,18.90
2019-02-11T07:40:12.364Z,16.67
2019-02-11T07:43:01.162Z,19.93
2019-02-11T07:45:32.122Z,19.90
2019-02-11T07:48:01.446Z,19.50
2019-02-11T07:50:30.812Z,10.80
2019-02-11T07:53:00.142Z,19.30
2019-02-11T07:55:29.458Z,21.33
2019-02-11T07:57:58.917Z,15.97
2019-02-11T08:00:28.245Z,13.77
2019-02-11T08:02:57.581Z,18.47
2019-02-11T08:05:26.927Z,16.93
2019-02-11T08:07:56.245Z,25.27
2019-02-11T08:10:25.569Z,16.83
2019-02-11T08:12:55.638Z,17.80
2019-02-11T08:15:24.977Z,13.80
2019-02-11T08:17:54.312Z,16.47
2019-02-11T08:20:23.673Z,20.93
2019-02-11T08:22:57.949Z,13.03
2019-02-11T08:25:27.277Z,18.70
2019-02-11T08:27:56.637Z,17.20
2019-02-11T08:30:25.965Z,17.97
2019-02-11T08:32:55.294Z,19.57
2019-02-11T08:35:24.722Z,17.23
2019-02-11T08:37:54.050Z,16.20
2019-02-11T08:40:23.377Z,12.23
2019-02-11T08:42:52.729Z,20.43
2019-02-11T08:45:22.075Z,17.53
2019-02-11T08:47:51.398Z,18.27
2019-02-11T08:50:20.748Z,16.47
2019-02-11T08:52:50.094Z,17.83
2019-02-11T08:55:19.421Z,20.30
2019-02-11T08:57:48.791Z,14.53
2019-02-11T09:00:18.113Z,18.10
2019-02-11T09:02:47.445Z,16.93
2019-02-11T09:05:16.891Z,13.20
2019-02-11T09:07:46.293Z,19.47
2019-02-11T09:10:15.753Z,12.73
2019-02-11T09:12:50.095Z,15.20
2019-02-11T09:15:19.481Z,11.20
2019-02-11T09:17:48.894Z,15.30
2019-02-11T09:20:18.259Z,20.57
2019-02-11T09:23:06.936Z,13.73
2019-02-11T09:25:36.302Z,15.57
2019-02-11T09:28:05.646Z,17.13
2019-02-11T09:30:34.983Z,17.30
2019-02-11T09:33:04.337Z,14.63
2019-02-11T09:35:33.688Z,15.60
2019-02-11T09:38:02.998Z,15.13
2019-02-11T09:40:32.365Z,12.60
2019-02-11T09:43:01.722Z,11.73
2019-02-11T09:45:31.042Z,13.53
2019-02-11T09:48:00.409Z,11.03
2019-02-11T09:50:35.782Z,16.63
2019-02-11T09:53:05.910Z,18.17
2019-02-11T09:55:35.237Z,20.20
2019-02-11T09:58:04.637Z,14.83
2019-02-11T10:00:34.073Z,12.27
2019-02-11T10:03:03.401Z,16.43
2019-02-11T10:05:32.724Z,18.67
2019-02-11T10:08:02.091Z,18.50
2019-02-11T10:10:31.518Z,10.07
2019-02-11T10:13:00.938Z,18.40
2019-02-11T10:15:30.294Z,16.70
2019-02-11T10:18:18.962Z,15.87
2019-02-11T10:20:48.317Z,15.10
2019-02-11T10:23:17.650Z,20.87
2019-02-11T10:25:46.987Z,18.83
2019-02-11T10:28:16.336Z,14.63
2019-02-11T10:30:45.662Z,10.77
2019-02-11T10:33:14.990Z,23.23
2019-02-11T10:35:44.339Z,16.10
2019-02-11T10:38:13.675Z,15.57
2019-02-11T10:40:42.985Z,15.07
2019-02-11T10:43:12.345Z,10.10
2019-02-11T10:45:41.675Z,12.63
2019-02-11T10:48:11.001Z,15.83
2019-02-11T10:50:40.362Z,9.83
2019-02-11T10:53:09.685Z,10.27
2019-02-11T10:55:39.190Z,11.53
2019-02-11T10:58:08.618Z,15.77
2019-02-11T11:00:38.778Z,13.60
2019-02-11T11:03:08.118Z,11.60
2019-02-11T11:05:37.544Z,10.07
2019-02-11T11:08:06.878Z,7.30
2019-02-11T11:10:38.716Z,10.30
2019-02-11T11:13:08.082Z,10.20
2019-02-11T11:15:37.431Z,6.33
2019-02-11T11:18:06.891Z,9.43
2019-02-11T11:20:36.243Z,6.13
2019-02-11T11:23:05.578Z,7.53
2019-02-11T11:25:34.977Z,6.27
2019-02-11T11:28:04.465Z,8.53
2019-02-11T11:30:34.239Z,6.53
2019-02-11T11:33:04.278Z,9.23
2019-02-11T11:35:33.638Z,5.43
2019-02-11T11:38:03.046Z,2.70
2019-02-11T11:40:33.045Z,4.67
2019-02-11T11:43:02.397Z,8.87
2019-02-11T11:45:31.725Z,4.97
2019-02-11T11:48:01.063Z,4.13
2019-02-11T11:50:30.417Z,3.23
2019-02-11T11:52:59.811Z,4.10
2019-02-11T11:55:29.146Z,5.67
2019-02-11T11:57:58.563Z,4.30
2019-02-11T12:00:33.941Z,12.97
2019-02-11T12:03:04.994Z,8.00
2019-02-11T12:05:34.374Z,6.00
2019-02-11T12:08:03.705Z,3.90
2019-02-11T12:10:33.116Z,4.23
2019-02-11T12:13:20.549Z,5.47
2019-02-11T12:15:33.594Z,7.90
2019-02-11T12:18:02.918Z,5.40
2019-02-11T12:20:33.582Z,4.23
2019-02-11T12:23:03.324Z,5.30
2019-02-11T12:25:32.724Z,6.53
2019-02-11T12:28:02.162Z,7.73
2019-02-11T12:30:31.474Z,4.20
2019-02-11T12:33:00.802Z,4.93
2019-02-11T12:35:30.167Z,8.83
2019-02-11T12:37:59.483Z,6.73
2019-02-11T12:40:28.808Z,5.47
2019-02-11T12:42:58.175Z,3.87
2019-02-11T12:45:27.478Z,6.63
2019-02-11T12:47:56.814Z,8.27
2019-02-11T12:50:26.171Z,3.73
2019-02-11T12:52:55.483Z,6.00
2019-02-11T12:55:26.040Z,5.03
2019-02-11T12:57:55.511Z,4.23
2019-02-11T13:00:25.207Z,9.30
2019-02-11T13:02:54.523Z,6.13
2019-02-11T13:05:43.137Z,6.00
2019-02-11T13:07:55.364Z,5.57
2019-02-11T13:10:24.774Z,6.20
2019-02-11T13:12:54.148Z,7.17
2019-02-11T13:15:56.780Z,5.60
2019-02-11T13:17:54.585Z,6.50
2019-02-11T13:20:24.043Z,7.77
2019-02-11T13:22:53.374Z,8.60
2019-02-11T13:25:22.715Z,6.60
2019-02-11T13:27:52.115Z,6.13
2019-02-11T13:30:23.233Z,5.97
2019-02-11T13:32:52.595Z,6.97
2019-02-11T13:35:21.999Z,9.33
2019-02-11T13:37:54.645Z,5.97
2019-02-11T13:40:22.393Z,8.83
2019-02-11T13:42:51.793Z,10.87
2019-02-11T13:45:21.806Z,7.87
2019-02-11T13:47:56.415Z,5.87
2019-02-11T13:50:24.783Z,5.47
2019-02-11T13:52:54.603Z,8.50
2019-02-11T13:55:24.087Z,6.23
2019-02-11T13:57:53.724Z,7.43
2019-02-11T14:00:36.741Z,4.27
2019-02-11T14:03:07.462Z,8.77
2019-02-11T14:05:37.009Z,5.27
2019-02-11T14:08:06.608Z,11.93
2019-02-11T14:10:36.270Z,5.83
2019-02-11T14:13:06.026Z,6.33
2019-02-11T14:15:54.737Z,5.70
2019-02-11T14:18:24.146Z,5.97
2019-02-11T14:21:12.821Z,4.40
2019-02-11T14:23:47.094Z,7.27
2019-02-11T14:26:16.437Z,6.37
2019-02-11T14:28:49.405Z,6.83
2019-02-11T14:31:16.816Z,7.43
2019-02-11T14:33:46.234Z,7.20
2019-02-11T14:36:15.275Z,8.47
2019-02-11T14:38:44.533Z,4.73
2019-02-11T14:41:13.928Z,5.50
2019-02-11T14:43:43.296Z,4.50
2019-02-11T14:46:12.617Z,4.73
2019-02-11T14:48:41.939Z,3.53
2019-02-11T14:51:11.297Z,6.90
2019-02-11T14:53:40.622Z,7.17
2019-02-11T14:56:09.945Z,4.30
2019-02-11T14:58:39.309Z,5.93
2019-02-11T15:01:08.309Z,5.27
2019-02-11T15:03:37.248Z,6.43
2019-02-11T15:06:06.530Z,6.33
2019-02-11T15:08:35.642Z,5.90
2019-02-11T15:11:04.882Z,3.77
2019-02-11T15:13:33.910Z,6.50
2019-02-11T15:16:03.214Z,4.43
2019-02-11T15:18:34.367Z,5.90
2019-02-11T15:21:03.347Z,3.53
2019-02-11T15:23:32.257Z,5.00
2019-02-11T15:26:01.490Z,2.20
2019-02-11T15:28:30.843Z,3.40
2019-02-11T15:31:19.518Z,2.90
2019-02-11T15:33:48.861Z,2.10
2019-02-11T15:36:17.861Z,4.87
2019-02-11T15:38:46.758Z,2.77
2019-02-11T15:41:16.034Z,6.43
2019-02-11T15:43:45.354Z,2.57
2019-02-11T15:46:14.673Z,4.17
2019-02-11T15:48:44.035Z,4.63
2019-02-11T15:51:13.029Z,4.33
2019-02-11T15:53:42.263Z,5.90
2019-02-11T15:56:11.295Z,8.33
2019-02-11T15:58:40.526Z,3.10
2019-02-11T16:01:09.880Z,4.90
2019-02-11T16:03:39.233Z,4.53
2019-02-11T16:06:10.693Z,3.57
2019-02-11T16:08:39.195Z,5.27
2019-02-11T16:11:08.553Z,4.20
2019-02-11T16:13:42.847Z,6.87
2019-02-11T16:16:11.845Z,8.37
2019-02-11T16:18:41.535Z,5.37
2019-02-11T16:21:11.130Z,6.07
2019-02-11T16:23:40.486Z,9.17
2019-02-11T16:26:28.845Z,7.33
2019-02-11T16:28:58.087Z,8.17
2019-02-11T16:31:27.091Z,8.30
2019-02-11T16:33:56.354Z,12.87
2019-02-11T16:36:25.349Z,11.07
2019-02-11T16:38:54.257Z,10.77
2019-02-11T16:41:23.201Z,10.30
2019-02-11T16:43:52.117Z,13.77
2019-02-11T16:46:22.213Z,12.83
2019-02-11T16:48:51.358Z,17.00
2019-02-11T16:51:20.589Z,17.17
2019-02-11T16:53:49.910Z,9.70
2019-02-11T16:56:18.936Z,14.67
2019-02-11T16:58:47.845Z,22.10
2019-02-11T17:01:16.750Z,14.83
2019-02-11T17:03:45.685Z,19.90
2019-02-11T17:06:14.605Z,11.60
2019-02-11T17:08:43.841Z,16.57
2019-02-11T17:11:12.929Z,10.20
2019-02-11T17:13:41.864Z,17.53
2019-02-11T17:16:10.777Z,10.80
2019-02-11T17:18:39.714Z,13.77
2019-02-11T17:21:08.954Z,15.07
2019-02-11T17:23:38.299Z,21.10
2019-02-11T17:26:07.323Z,16.27
2019-02-11T17:28:36.574Z,13.80
2019-02-11T17:31:05.910Z,9.63
2019-02-11T17:33:34.956Z,11.47
2019-02-11T17:36:04.228Z,11.97
2019-02-11T17:38:33.602Z,12.90
2019-02-11T17:41:02.631Z,8.83
2019-02-11T17:43:31.604Z,9.47
2019-02-11T17:46:00.511Z,10.30
2019-02-11T17:48:29.771Z,8.23
2019-02-11T17:50:58.774Z,12.47
2019-02-11T17:53:27.688Z,20.83
2019-02-11T17:55:56.642Z,8.97
2019-02-11T17:58:25.555Z,9.73
2019-02-11T18:00:56.106Z,17.00
2019-02-11T18:03:25.366Z,7.67
2019-02-11T18:05:54.689Z,6.17
2019-02-11T18:08:24.009Z,8.87
2019-02-11T18:10:53.031Z,11.67
2019-02-11T18:13:22.272Z,8.43
2019-02-11T18:15:51.333Z,11.30
2019-02-11T18:18:20.773Z,8.70
2019-02-11T18:20:49.674Z,12.03
2019-02-11T18:23:18.919Z,11.93
2019-02-11T18:25:48.304Z,11.33
2019-02-11T18:28:17.293Z,14.23
2019-02-11T18:30:46.203Z,9.57
2019-02-11T18:33:15.167Z,9.57
2019-02-11T18:35:44.077Z,10.07
2019-02-11T18:38:13.326Z,8.17
2019-02-11T18:40:42.669Z,8.53
2019-02-11T18:43:11.672Z,11.57
2019-02-11T18:45:40.572Z,11.93
2019-02-11T18:48:09.509Z,10.73
2019-02-11T18:50:38.741Z,12.17
2019-02-11T18:53:07.739Z,8.97
2019-02-11T18:55:36.688Z,13.77
2019-02-11T18:58:06.020Z,7.33
2019-02-11T19:00:35.031Z,7.90
2019-02-11T19:03:04.029Z,12.40
2019-02-11T19:05:33.300Z,11.57
2019-02-11T19:08:02.306Z,11.90
2019-02-11T19:10:31.246Z,8.97
2019-02-11T19:13:00.483Z,7.77
2019-02-11T19:15:29.822Z,12.90
2019-02-11T19:17:58.914Z,10.83
2019-02-11T19:20:27.890Z,11.33
2019-02-11T19:22:56.822Z,21.10
2019-02-11T19:25:26.091Z,12.87
2019-02-11T19:27:55.090Z,14.83
2019-02-11T19:30:27.113Z,8.87
2019-02-11T19:32:56.048Z,8.77
2019-02-11T19:35:26.598Z,9.90
2019-02-11T19:37:55.510Z,10.67
2019-02-11T19:40:24.444Z,14.03
2019-02-11T19:42:53.685Z,14.83
2019-02-11T19:45:23.248Z,11.70
2019-02-11T19:47:52.193Z,12.47
2019-02-11T19:50:21.097Z,9.23
2019-02-11T19:53:00.093Z,12.77
2019-02-11T19:55:29.067Z,18.33
2019-02-11T19:57:58.307Z,7.37
2019-02-11T20:00:27.393Z,14.90
2019-02-11T20:02:56.292Z,9.17
2019-02-11T20:05:25.541Z,9.00
2019-02-11T20:07:54.665Z,14.17
2019-02-11T20:10:24.127Z,9.17
2019-02-11T20:12:53.039Z,12.17
2019-02-11T20:15:28.004Z,6.50
2019-02-11T20:17:57.414Z,13.47
2019-02-11T20:20:26.740Z,12.37
2019-02-11T20:22:55.796Z,9.90
2019-02-11T20:25:24.721Z,16.40
2019-02-11T20:27:54.119Z,10.83
2019-02-11T20:30:26.664Z,7.70
2019-02-11T20:33:00.485Z,10.73
2019-02-11T20:35:29.428Z,13.77
2019-02-11T20:37:58.977Z,11.13
2019-02-11T20:40:29.731Z,8.57
2019-02-11T20:42:58.809Z,7.97
2019-02-11T20:45:28.323Z,11.20
2019-02-11T20:47:57.568Z,11.27
2019-02-11T20:50:26.898Z,12.77
2019-02-11T20:52:55.925Z,5.93
2019-02-11T20:55:24.852Z,10.37
2019-02-11T20:57:57.238Z,8.13
2019-02-11T21:00:27.138Z,7.17
2019-02-11T21:02:56.491Z,12.00
2019-02-11T21:05:25.839Z,7.10
2019-02-11T21:07:54.877Z,9.63
2019-02-11T21:10:45.191Z,8.93
2019-02-11T21:13:14.239Z,13.10
2019-02-11T21:15:43.163Z,9.43
2019-02-11T21:18:12.063Z,12.53
2019-02-11T21:20:41.800Z,10.60
2019-02-11T21:23:11.516Z,10.00
2019-02-11T21:25:40.543Z,8.90
2019-02-11T21:28:09.490Z,9.30
2019-02-11T21:30:38.430Z,13.57
2019-02-11T21:33:07.755Z,13.43
2019-02-11T21:35:36.722Z,9.23
2019-02-11T21:38:05.663Z,8.47
2019-02-11T21:40:34.939Z,9.63
2019-02-11T21:43:03.962Z,8.93
2019-02-11T21:45:32.919Z,10.23
2019-02-11T21:48:01.899Z,7.93
2019-02-11T21:50:31.207Z,14.60
2019-02-11T21:53:00.548Z,12.10
2019-02-11T21:55:29.547Z,9.33
2019-02-11T21:57:58.828Z,8.10
2019-02-11T22:00:27.831Z,10.10
2019-02-11T22:02:56.767Z,18.67
2019-02-11T22:05:25.709Z,11.93
2019-02-11T22:07:54.979Z,12.00
2019-02-11T22:10:23.979Z,7.17
2019-02-11T22:12:52.938Z,7.73
2019-02-11T22:15:22.257Z,9.80
2019-02-11T22:17:51.275Z,8.33
2019-02-11T22:20:21.791Z,7.20
2019-02-11T22:22:50.970Z,13.73
2019-02-11T22:25:19.887Z,8.20
2019-02-11T22:27:48.834Z,15.10
2019-02-11T22:30:19.301Z,11.87
2019-02-11T22:32:48.543Z,9.13
2019-02-11T22:35:17.648Z,10.00
2019-02-11T22:37:47.531Z,8.80
2019-02-11T22:40:16.845Z,9.07
2019-02-11T22:42:45.883Z,10.80
2019-02-11T22:45:16.331Z,13.73
2019-02-11T22:47:45.251Z,13.00
2019-02-11T22:50:14.603Z,8.80
2019-02-11T22:52:43.615Z,11.90
2019-02-11T22:55:14.049Z,7.97
2019-02-11T22:57:42.947Z,6.93
2019-02-11T23:00:22.970Z,12.17
2019-02-11T23:02:51.982Z,12.07
2019-02-11T23:05:20.890Z,11.30
2019-02-11T23:07:50.144Z,14.53
2019-02-11T23:10:19.251Z,9.40
2019-02-11T23:12:48.174Z,11.57
2019-02-11T23:15:17.081Z,9.70
2019-02-11T23:17:46.355Z,13.10
2019-02-11T23:20:15.366Z,14.03
2019-02-11T23:22:44.609Z,14.40
2019-02-11T23:25:13.655Z,11.27
2019-02-11T23:27:42.566Z,6.33
2019-02-11T23:30:13.584Z,7.50
2019-02-11T23:32:42.142Z,10.83
2019-02-11T23:35:11.068Z,13.37
2019-02-11T23:37:40.304Z,10.93
2019-02-11T23:40:09.708Z,10.43
2019-02-11T23:42:38.692Z,7.83
2019-02-11T23:45:08.673Z,11.80
2019-02-11T23:47:37.618Z,10.33
2019-02-11T23:50:07.501Z,6.50
2019-02-11T23:52:36.411Z,11.33
2019-02-11T23:55:07.372Z,7.10
2019-02-11T23:57:36.290Z,11.47
